地図

経路データ

SID SEASON NUMBER BASIN SUBBASIN NAME ISO_TIME NATURE LAT LON WMO_WIND WMO_PRES WMO_AGENCY TRACK_TYPE DIST2LAND LANDFALL IFLAG USA_AGENCY USA_ATCF_ID USA_LAT USA_LON USA_RECORD USA_STATUS USA_WIND USA_PRES USA_SSHS USA_R34_NE USA_R34_SE USA_R34_SW USA_R34_NW USA_R50_NE USA_R50_SE USA_R50_SW USA_R50_NW USA_R64_NE USA_R64_SE USA_R64_SW USA_R64_NW USA_POCI USA_ROCI USA_RMW USA_EYE TOKYO_LAT TOKYO_LON TOKYO_GRADE TOKYO_WIND TOKYO_PRES TOKYO_R50_DIR TOKYO_R50_LONG TOKYO_R50_SHORT TOKYO_R30_DIR TOKYO_R30_LONG TOKYO_R30_SHORT TOKYO_LAND CMA_LAT CMA_LON CMA_CAT CMA_WIND CMA_PRES HKO_LAT HKO_LON HKO_CAT HKO_WIND HKO_PRES NEWDELHI_LAT NEWDELHI_LON NEWDELHI_GRADE NEWDELHI_WIND NEWDELHI_PRES NEWDELHI_CI NEWDELHI_DP NEWDELHI_POCI REUNION_LAT REUNION_LON REUNION_TYPE REUNION_WIND REUNION_PRES REUNION_TNUM REUNION_CI REUNION_RMW REUNION_R34_NE REUNION_R34_SE REUNION_R34_SW REUNION_R34_NW REUNION_R50_NE REUNION_R50_SE REUNION_R50_SW REUNION_R50_NW REUNION_R64_NE REUNION_R64_SE REUNION_R64_SW REUNION_R64_NW BOM_LAT BOM_LON BOM_TYPE BOM_WIND BOM_PRES BOM_TNUM BOM_CI BOM_RMW BOM_R34_NE BOM_R34_SE BOM_R34_SW BOM_R34_NW BOM_R50_NE BOM_R50_SE BOM_R50_SW BOM_R50_NW BOM_R64_NE BOM_R64_SE BOM_R64_SW BOM_R64_NW BOM_ROCI BOM_POCI BOM_EYE BOM_POS_METHOD BOM_PRES_METHOD NADI_LAT NADI_LON NADI_CAT NADI_WIND NADI_PRES WELLINGTON_LAT WELLINGTON_LON WELLINGTON_WIND WELLINGTON_PRES DS824_LAT DS824_LON DS824_STAGE DS824_WIND DS824_PRES TD9636_LAT TD9636_LON TD9636_STAGE TD9636_WIND TD9636_PRES TD9635_LAT TD9635_LON TD9635_WIND TD9635_PRES TD9635_ROCI NEUMANN_LAT NEUMANN_LON NEUMANN_CLASS NEUMANN_WIND NEUMANN_PRES MLC_LAT MLC_LON MLC_CLASS MLC_WIND MLC_PRES USA_GUST BOM_GUST BOM_GUST_PER REUNION_GUST REUNION_GUST_PER USA_SEAHGT USA_SEARAD_NE USA_SEARAD_SE USA_SEARAD_SW USA_SEARAD_NW STORM_SPEED STORM_DIR
1988191N13256 1988 34 EP MM CARLOTTA 1988-07-08 18:00:00 TS 13.3000 -104.100 30 1010 hurdat_epa main 549 549 O_________O___ hurdat_epa EP031988 13.3000 -104.100 TD 30 1010 -1 13.3000 -104.100 1 30 5 277
1988191N13256 1988 34 EP MM CARLOTTA 1988-07-08 21:00:00 TS 13.3309 -104.355 main 560 553 P_________P___ EP031988 13.3274 -104.353 TD 30 1009 -1 13.3414 -104.362 1 30 6 280
1988191N13256 1988 34 EP MM CARLOTTA 1988-07-09 00:00:00 TS 13.4000 -104.700 30 1009 hurdat_epa main 560 556 O_________O___ hurdat_epa EP031988 13.4000 -104.700 TD 30 1009 -1 13.4000 -104.700 1 30 8 284
1988191N13256 1988 34 EP MM CARLOTTA 1988-07-09 03:00:00 TS 13.5292 -105.196 main 567 560 P_________P___ EP031988 13.5425 -105.205 TD 30 1008 -1 13.4891 -105.171 1 31 11 285
1988191N13256 1988 34 EP MM CARLOTTA 1988-07-09 06:00:00 TS 13.6766 -105.786 30 1007 hurdat_epa main 570 570 O_________P___ hurdat_epa EP031988 13.7000 -105.800 TD 30 1007 -1 13.6062 -105.744 1 32 12 282
1988191N13256 1988 34 EP MM CARLOTTA 1988-07-09 09:00:00 TS 13.7863 -106.393 main 591 591 P_________P___ EP031988 13.8000 -106.400 TD 32 1006 -1 13.7451 -106.371 1 33 12 281
1988191N13256 1988 34 EP MM CARLOTTA 1988-07-09 12:00:00 TS 13.9000 -107.000 35 1005 hurdat_epa main 618 618 O_________O___ hurdat_epa EP031988 13.9000 -107.000 TS 35 1005 0 13.9000 -107.000 2 35 12 283
1988191N13256 1988 34 EP MM CARLOTTA 1988-07-09 15:00:00 TS 14.0391 -107.558 main 650 642 P_________P___ EP031988 14.0348 -107.558 TS 37 1003 0 14.0520 -107.557 2 37 11 286
1988191N13256 1988 34 EP MM CARLOTTA 1988-07-09 18:00:00 TS 14.2049 -108.102 40 1002 hurdat_epa main 660 660 O_________P___ hurdat_epa EP031988 14.2000 -108.100 TS 40 1002 0 14.2194 -108.108 2 40 11 289
1988191N13256 1988 34 EP MM CARLOTTA 1988-07-09 21:00:00 TS 14.3948 -108.651 main 678 676 P_________P___ EP031988 14.3924 -108.650 TS 42 1001 0 14.4021 -108.654 2 42 11 290
1988191N13256 1988 34 EP MM CARLOTTA 1988-07-10 00:00:00 TS 14.6000 -109.200 45 1000 hurdat_epa main 695 695 O_________O___ hurdat_epa EP031988 14.6000 -109.200 TS 45 1000 0 14.6000 -109.200 2 45 11 291
1988191N13256 1988 34 EP MM CARLOTTA 1988-07-10 03:00:00 TS 14.7948 -109.750 main 724 724 P_________P___ EP031988 14.7924 -109.750 TS 47 998 0 14.8021 -109.750 2 47 11 291
1988191N13256 1988 34 EP MM CARLOTTA 1988-07-10 06:00:00 TS 15.0049 -110.300 50 997 hurdat_epa main 747 746 O_________P___ hurdat_epa EP031988 15.0000 -110.300 TS 50 997 0 15.0195 -110.301 2 50 12 293
1988191N13256 1988 34 EP MM CARLOTTA 1988-07-10 09:00:00 TS 15.2448 -110.850 main 778 771 P_________P___ EP031988 15.2424 -110.850 TS 52 996 0 15.2521 -110.850 2 52 12 295
1988191N13256 1988 34 EP MM CARLOTTA 1988-07-10 12:00:00 TS 15.5000 -111.400 55 995 hurdat_epa main 799 799 O_________O___ hurdat_epa EP031988 15.5000 -111.400 TS 55 995 0 15.5000 -111.400 2 55 12 295
1988191N13256 1988 34 EP MM CARLOTTA 1988-07-10 15:00:00 TS 15.7430 -111.961 main 832 811 P_________P___ EP031988 15.7424 -111.958 TS 55 994 0 15.7447 -111.972 2 56 12 295
1988191N13256 1988 34 EP MM CARLOTTA 1988-07-10 18:00:00 TS 16.0014 -112.510 55 994 hurdat_epa main 815 802 O_________P___ hurdat_epa EP031988 16.0000 -112.500 TS 55 994 0 16.0056 -112.541 2 57 12 298
1988191N13256 1988 34 EP MM CARLOTTA 1988-07-10 21:00:00 TS 16.2858 -113.028 main 802 794 P_________P___ EP031988 16.2848 -113.008 TS 57 994 0 16.2888 -113.089 2 58 11 302
1988191N13256 1988 34 EP MM CARLOTTA 1988-07-11 00:00:00 TS 16.6000 -113.525 60 994 hurdat_epa main 794 784 O_________O___ hurdat_epa EP031988 16.6000 -113.500 TS 60 994 0 16.6000 -113.600 2 60 12 305
1988191N13256 1988 34 EP MM CARLOTTA 1988-07-11 03:00:00 TS 16.9501 -114.021 main 781 776 P_________P___ EP031988 16.9499 -114.008 TS 62 994 0 16.9506 -114.060 2 62 12 307
1988191N13256 1988 34 EP MM CARLOTTA 1988-07-11 06:00:00 TS 17.3000 -114.500 65 994 hurdat_epa main 782 777 O_________O___ hurdat_epa EP031988 17.3000 -114.500 HU 65 994 1 17.3000 -114.500 3 65 11 306
1988191N13256 1988 34 EP MM CARLOTTA 1988-07-11 09:00:00 TS 17.6018 -114.944 main 782 780 P_________P___ EP031988 17.5997 -114.943 HU 65 994 1 17.6080 -114.945 3 65 10 305
1988191N13256 1988 34 EP MM CARLOTTA 1988-07-11 12:00:00 TS 17.9000 -115.400 65 994 hurdat_epa main 793 792 O_________O___ hurdat_epa EP031988 17.9000 -115.400 HU 65 994 1 17.9000 -115.400 4 65 11 304
1988191N13256 1988 34 EP MM CARLOTTA 1988-07-11 15:00:00 TS 18.2423 -115.932 main 808 808 P_________P___ EP031988 18.2576 -115.950 HU 65 994 1 18.1964 -115.877 4 65 12 304
1988191N13256 1988 34 EP MM CARLOTTA 1988-07-11 18:00:00 TS 18.5732 -116.468 65 994 hurdat_epa main 819 815 O_________P___ hurdat_epa EP031988 18.6000 -116.500 HU 65 994 1 18.4929 -116.373 4 65 11 302
1988191N13256 1988 34 EP MM CARLOTTA 1988-07-11 21:00:00 TS 18.8355 -116.934 main 824 822 P_________P___ EP031988 18.8497 -116.951 HU 65 994 1 18.7929 -116.883 4 65 10 301
1988191N13256 1988 34 EP MM CARLOTTA 1988-07-12 00:00:00 TS 19.1000 -117.400 65 994 hurdat_epa main 830 829 O_________O___ hurdat_epa EP031988 19.1000 -117.400 HU 65 994 1 19.1000 -117.400 4 65 11 303
1988191N13256 1988 34 EP MM CARLOTTA 1988-07-12 03:00:00 TS 19.4424 -117.941 main 841 840 P_________P___ EP031988 19.4425 -117.942 HU 62 994 0 19.4422 -117.938 4 61 12 304
1988191N13256 1988 34 EP MM CARLOTTA 1988-07-12 06:00:00 TS 19.7969 -118.495 60 995 hurdat_epa main 855 855 O_________P___ hurdat_epa EP031988 19.8000 -118.500 TS 60 995 0 19.7876 -118.479 4 57 12 304
1988191N13256 1988 34 EP MM CARLOTTA 1988-07-12 09:00:00 TS 20.1147 -119.019 main 873 873 P_________P___ EP031988 20.1149 -119.023 TS 55 995 0 20.1142 -119.006 4 53 11 303
1988191N13256 1988 34 EP MM CARLOTTA 1988-07-12 12:00:00 TS 20.4000 -119.500 50 996 hurdat_epa main 895 895 O_________O___ hurdat_epa EP031988 20.4000 -119.500 TS 50 996 0 20.4000 -119.500 2 50 10 303
1988191N13256 1988 34 EP MM CARLOTTA 1988-07-12 15:00:00 TS 20.6662 -119.919 main 912 912 P_________P___ EP031988 20.6798 -119.915 TS 47 998 0 20.6253 -119.929 2 46 9 302
1988191N13256 1988 34 EP MM CARLOTTA 1988-07-12 18:00:00 TS 20.8772 -120.306 45 1000 hurdat_epa main 923 923 O_________P___ hurdat_epa EP031988 20.9000 -120.300 TS 45 1000 0 20.8088 -120.324 2 42 8 295
1988191N13256 1988 34 EP MM CARLOTTA 1988-07-12 21:00:00 TS 21.0019 -120.696 main 942 942 P_________P___ EP031988 21.0149 -120.693 TS 40 1002 0 20.9629 -120.707 2 38 8 287
1988191N13256 1988 34 EP MM CARLOTTA 1988-07-13 00:00:00 TS 21.1000 -121.100 35 1005 hurdat_epa main 961 961 O_________O___ hurdat_epa EP031988 21.1000 -121.100 TS 35 1005 0 21.1000 -121.100 2 35 8 288
1988191N13256 1988 34 EP MM CARLOTTA 1988-07-13 03:00:00 TS 21.2534 -121.544 main 970 970 P_________P___ EP031988 21.2499 -121.542 TS 32 1007 -1 21.2638 -121.548 2 33 9 290
1988191N13256 1988 34 EP MM CARLOTTA 1988-07-13 06:00:00 TS 21.4025 -122.002 30 1009 hurdat_epa main 997 997 O_________P___ hurdat_epa EP031988 21.4000 -122.000 TD 30 1009 -1 21.4101 -122.007 2 32 9 287
1988191N13256 1988 34 EP MM CARLOTTA 1988-07-13 09:00:00 TS 21.5178 -122.459 main 1026 1026 P_________P___ EP031988 21.5149 -122.458 TD 30 1009 -1 21.5263 -122.463 2 31 9 283
1988191N13256 1988 34 EP MM CARLOTTA 1988-07-13 12:00:00 TS 21.6000 -122.900 30 1010 hurdat_epa main 1048 1048 O_________O___ hurdat_epa EP031988 21.6000 -122.900 TD 30 1010 -1 21.6000 -122.900 1 30 8 281
1988191N13256 1988 34 EP MM CARLOTTA 1988-07-13 15:00:00 TS 21.6664 -123.312 main 1072 1072 P_________P___ EP031988 21.6799 -123.315 TD 30 1010 -1 21.6259 -123.305 1 28 7 276
1988191N13256 1988 34 EP MM CARLOTTA 1988-07-13 18:00:00 TS 21.6774 -123.697 30 1010 hurdat_epa main 1104 1104 O_________P___ hurdat_epa EP031988 21.7000 -123.700 TD 30 1010 -1 21.6095 -123.688 1 27 7 265
1988191N13256 1988 34 EP MM CARLOTTA 1988-07-13 21:00:00 TS 21.6077 -124.062 main 1143 1143 P_________P___ EP031988 21.6224 -124.065 TD 27 1010 -1 21.5634 -124.052 1 26 7 255
1988191N13256 1988 34 EP MM CARLOTTA 1988-07-14 00:00:00 TS 21.5000 -124.400 25 1011 hurdat_epa main 1174 1174 O_________O___ hurdat_epa EP031988 21.5000 -124.400 TD 25 1011 -1 21.5000 -124.400 1 25 6 251
1988191N13256 1988 34 EP MM CARLOTTA 1988-07-14 03:00:00 TS 21.4030 -124.710 main 1206 1206 P_________P___ EP031988 21.3924 -124.700 TD 25 1011 -1 21.4350 -124.739 1 25 6 252
1988191N13256 1988 34 EP MM CARLOTTA 1988-07-14 06:00:00 TS 21.3143 -125.016 25 1011 hurdat_epa main 1237 1237 O_________P___ hurdat_epa EP031988 21.3000 -125.000 TD 25 1011 -1 21.3571 -125.065 1 25 6 256
1988191N13256 1988 34 EP MM CARLOTTA 1988-07-14 09:00:00 TS 21.2508 -125.358 main 1270 1270 P_________P___ EP031988 21.2425 -125.350 TD 25 1011 -1 21.2756 -125.383 1 25 6 260
1988191N13256 1988 34 EP MM CARLOTTA 1988-07-14 12:00:00 TS 21.2000 -125.700 25 1011 hurdat_epa main 1302 1302 O_________O___ hurdat_epa EP031988 21.2000 -125.700 TD 25 1011 -1 21.2000 -125.700 1 25 6 260
1988191N13256 1988 34 EP MM CARLOTTA 1988-07-14 15:00:00 TS 21.1460 -126.007 main 1334 1334 P_________P___ EP031988 21.1499 -126.000 TD 25 1011 -1 21.1346 -126.029 1 25 6 260
1988191N13256 1988 34 EP MM CARLOTTA 1988-07-14 18:00:00 TS 21.0943 -126.314 25 1011 hurdat_epa main 1359 1359 O_________P___ hurdat_epa EP031988 21.1000 -126.300 TD 25 1011 -1 21.0773 -126.358 1 25 6 260
1988191N13256 1988 34 EP MM CARLOTTA 1988-07-14 21:00:00 TS 21.0397 -126.658 main 1400 1400 P_________P___ EP031988 21.0425 -126.650 TD 25 1011 -1 21.0314 -126.682 1 25 6 262
1988191N13256 1988 34 EP MM CARLOTTA 1988-07-15 00:00:00 TS 21.0000 -127.000 25 1011 hurdat_epa main 1425 1425 O_________O___ hurdat_epa EP031988 21.0000 -127.000 TD 25 1011 -1 21.0000 -127.000 1 25 6 265
1988191N13256 1988 34 EP MM CARLOTTA 1988-07-15 03:00:00 TS 20.9905 -127.308 main 1451 1451 P_________P___ EP031988 20.9924 -127.307 TD 25 1011 -1 20.9849 -127.309 1 23 6 270
1988191N13256 1988 34 EP MM CARLOTTA 1988-07-15 06:00:00 TS 20.9957 -127.602 25 1011 hurdat_epa main 1477 1477 O_________P___ hurdat_epa EP031988 21.0000 -127.600 TD 25 1011 -1 20.9828 -127.610 1 22 6 271
1988191N13256 1988 34 EP MM CARLOTTA 1988-07-15 09:00:00 TS 20.9993 -127.900 main 1503 1503 P_________P___ EP031988 21.0026 -127.898 TD 22 1011 -1 20.9894 -127.906 1 21 6 270
1988191N13256 1988 34 EP MM CARLOTTA 1988-07-15 12:00:00 TS 21.0000 -128.200 20 1012 hurdat_epa main 1530 O_________O___ hurdat_epa EP031988 21.0000 -128.200 TD 20 1012 -1 21.0000 -128.200 1 20 6 270

IBTrACS Databaseについて

本データベースは、米国NOAAが公開する1842年以降の世界の熱帯低気圧のベストトラックデータアーカイブInternational Best Track Archive for Climate Stewardship (IBTrACS)を、ウェブで閲覧しやすい形式に変換したものです。

最終更新日:2021-10-27